Time;durP1;ratioP1;P1;durP2;ratioP2;P2;SDS_P1;SDS_P2;PMS_P1;PMS_P2;Temp;Humidity;BMP_temperature;BMP_pressure;BME280_temperature;BME280_humidity;BME280_pressure;Samples;Min_cycle;Max_cycle;Signal;HPM_P1;HPM_P2
2022/01/13 00:02:03;;;;;;;5.30;1.92;;;20.40;52.30;;;;;;5065668;28;20298;-48
2022/01/13 00:04:35;;;;;;;3.65;2.00;;;20.40;52.40;;;;;;5063720;28;20230;-46
2022/01/13 00:07:06;;;;;;;6.53;1.80;;;20.40;52.50;;;;;;5066097;28;20312;-41
2022/01/13 00:09:37;;;;;;;4.15;1.45;;;20.50;52.50;;;;;;5065655;28;20631;-50
2022/01/13 00:12:09;;;;;;;4.70;1.63;;;20.50;52.60;;;;;;5067791;28;20709;-42
2022/01/13 00:14:53;;;;;;;3.17;1.40;;;20.50;52.50;;;;;;5064795;28;20305;-46
2022/01/13 00:17:33;;;;;;;5.75;1.70;;;20.60;52.60;;;;;;5064937;28;20201;-44
2022/01/13 00:20:27;;;;;;;2.78;1.55;;;20.60;52.50;;;;;;5064347;28;20195;-42
2022/01/13 00:25:44;;;;;;;5.80;2.08;;;20.70;52.50;;;;;;5064818;28;20726;-41
2022/01/13 00:28:20;;;;;;;4.03;1.50;;;20.80;52.50;;;;;;5063207;28;20309;-44
2022/01/13 00:30:54;;;;;;;3.50;1.40;;;20.80;52.50;;;;;;5066208;28;20950;-44
2022/01/13 00:33:26;;;;;;;4.50;1.70;;;20.80;52.50;;;;;;5068039;28;20717;-50
2022/01/13 00:36:00;;;;;;;3.78;1.95;;;20.90;52.60;;;;;;5068074;28;20665;-46
2022/01/13 00:38:31;;;;;;;3.70;1.38;;;20.90;52.60;;;;;;5064326;28;20746;-43
2022/01/13 00:41:02;;;;;;;3.65;1.55;;;21.00;52.60;;;;;;5066163;28;20648;-51
2022/01/13 00:43:36;;;;;;;2.60;1.48;;;21.00;52.50;;;;;;5065506;28;20246;-43
2022/01/13 00:46:07;;;;;;;4.40;1.40;;;21.10;52.40;;;;;;5063813;28;20559;-47
2022/01/13 00:48:38;;;;;;;1.92;1.17;;;21.10;52.40;;;;;;5064980;28;20315;-48
2022/01/13 00:51:10;;;;;;;2.42;1.25;;;21.20;52.40;;;;;;5066704;28;20730;-48
2022/01/13 00:53:41;;;;;;;2.10;1.25;;;21.20;52.30;;;;;;5067229;28;20645;-47
2022/01/13 00:56:12;;;;;;;2.22;1.23;;;21.30;52.30;;;;;;5063861;28;20282;-42
2022/01/13 00:58:42;;;;;;;2.25;1.30;;;21.30;52.20;;;;;;5062834;28;20203;-41
2022/01/13 01:01:13;;;;;;;5.32;1.67;;;21.40;52.30;;;;;;5063928;28;20274;-45
2022/01/13 01:03:45;;;;;;;4.10;1.60;;;21.40;52.00;;;;;;5064565;28;20770;-45
2022/01/13 01:06:17;;;;;;;6.97;1.63;;;21.40;51.50;;;;;;5065269;28;20290;-44
2022/01/13 01:08:48;;;;;;;3.85;1.63;;;21.50;51.30;;;;;;5067320;28;20236;-43
2022/01/13 01:11:18;;;;;;;4.68;1.50;;;21.40;51.00;;;;;;5064691;28;20281;-41
2022/01/13 01:13:50;;;;;;;4.75;2.03;;;21.50;50.70;;;;;;5066169;28;20218;-43
2022/01/13 01:16:21;;;;;;;5.68;2.33;;;21.50;50.80;;;;;;5064305;28;20591;-41
2022/01/13 01:19:00;;;;;;;6.45;2.03;;;21.50;50.90;;;;;;5065008;28;20274;-42
2022/01/13 01:24:43;;;;;;;5.30;2.20;;;21.60;51.20;;;;;;5043642;28;20994;-42
2022/01/13 01:27:19;;;;;;;3.30;1.80;;;21.70;51.20;;;;;;5061878;28;20220;-47
2022/01/13 01:29:57;;;;;;;4.05;1.67;;;21.80;51.20;;;;;;5065211;28;20654;-40
2022/01/13 01:32:28;;;;;;;5.30;1.75;;;21.80;51.30;;;;;;5064677;28;20213;-42
2022/01/13 01:35:02;;;;;;;4.88;1.90;;;21.80;51.30;;;;;;5065463;28;20198;-42
2022/01/13 01:37:34;;;;;;;6.05;1.90;;;21.90;51.30;;;;;;5064327;28;20210;-43
2022/01/13 01:40:06;;;;;;;3.97;1.83;;;21.90;51.20;;;;;;5064184;28;20289;-41
2022/01/13 01:42:37;;;;;;;4.53;1.88;;;22.00;51.10;;;;;;5063568;28;20285;-41
2022/01/13 01:45:09;;;;;;;5.95;1.85;;;22.00;51.00;;;;;;5066122;28;20284;-41
2022/01/13 01:47:40;;;;;;;3.58;1.73;;;22.10;51.10;;;;;;5064288;28;20246;-43
2022/01/13 01:50:18;;;;;;;6.70;2.40;;;22.10;51.00;;;;;;5066083;28;20195;-46
2022/01/13 01:52:52;;;;;;;4.07;1.60;;;22.20;51.10;;;;;;5064114;28;20241;-44
2022/01/13 01:55:24;;;;;;;3.85;1.80;;;22.20;51.00;;;;;;5062336;28;20632;-44
2022/01/13 01:57:54;;;;;;;4.25;1.85;;;22.30;51.00;;;;;;5064571;28;20298;-44
2022/01/13 02:00:27;;;;;;;4.78;2.00;;;22.30;50.90;;;;;;5062916;28;20230;-42
2022/01/13 02:02:58;;;;;;;4.78;1.85;;;22.40;51.00;;;;;;5062830;28;20219;-41
2022/01/13 02:05:28;;;;;;;3.30;1.90;;;22.40;51.00;;;;;;5065601;28;20227;-41
2022/01/13 02:08:01;;;;;;;4.13;1.50;;;22.50;51.10;;;;;;5063830;28;20305;-43
2022/01/13 02:10:31;;;;;;;3.25;1.60;;;22.50;51.00;;;;;;5061847;28;20226;-42
2022/01/13 02:13:06;;;;;;;2.35;1.70;;;22.60;50.90;;;;;;5062848;28;20302;-45
2022/01/13 02:15:48;;;;;;;2.95;1.60;;;22.60;50.90;;;;;;5063930;28;20198;-41
2022/01/13 02:18:18;;;;;;;3.17;1.60;;;22.70;50.90;;;;;;5064185;28;20209;-44
2022/01/13 02:20:56;;;;;;;4.20;1.83;;;22.80;50.80;;;;;;5061116;28;20659;-45
2022/01/13 02:23:35;;;;;;;4.30;1.88;;;22.80;50.70;;;;;;5063413;28;20224;-45
2022/01/13 02:26:09;;;;;;;4.25;1.83;;;22.90;50.60;;;;;;5066936;28;20321;-47
2022/01/13 02:28:43;;;;;;;4.63;1.70;;;22.90;50.50;;;;;;5063727;28;20218;-43
2022/01/13 02:31:14;;;;;;;2.88;1.58;;;22.90;50.40;;;;;;5062758;28;20278;-46
2022/01/13 02:33:44;;;;;;;2.80;1.52;;;23.00;50.50;;;;;;5061826;28;20647;-42
2022/01/13 02:36:20;;;;;;;3.35;1.73;;;23.00;50.40;;;;;;5062188;28;20282;-43
2022/01/13 02:38:51;;;;;;;2.83;1.42;;;23.10;50.30;;;;;;5063655;28;20284;-42
2022/01/13 02:41:22;;;;;;;2.25;1.60;;;23.10;50.20;;;;;;5062649;28;20249;-45
2022/01/13 02:43:53;;;;;;;4.18;1.67;;;23.20;50.20;;;;;;5066924;28;20221;-43
2022/01/13 02:46:43;;;;;;;4.10;1.60;;;23.20;50.10;;;;;;5065380;28;20218;-41
2022/01/13 02:49:14;;;;;;;3.90;1.60;;;23.20;50.00;;;;;;5065640;28;20674;-42
2022/01/13 02:51:48;;;;;;;3.72;1.60;;;23.30;50.00;;;;;;5063956;28;20195;-44
2022/01/13 02:54:19;;;;;;;2.22;1.50;;;23.30;49.90;;;;;;5061650;28;20345;-42
2022/01/13 02:56:49;;;;;;;4.35;1.67;;;23.40;49.80;;;;;;5060774;28;20289;-42
2022/01/13 02:59:20;;;;;;;4.68;1.60;;;23.40;49.80;;;;;;5062996;28;20249;-43
2022/01/13 03:01:50;;;;;;;3.78;1.55;;;23.40;49.70;;;;;;5062776;28;20286;-43
2022/01/13 03:04:23;;;;;;;2.70;1.45;;;23.40;49.70;;;;;;5064511;28;20301;-45
2022/01/13 03:06:55;;;;;;;2.35;1.20;;;23.50;49.70;;;;;;5063318;28;20612;-42
2022/01/13 03:09:26;;;;;;;2.90;1.40;;;23.50;49.50;;;;;;5062193;28;20301;-44
2022/01/13 03:11:56;;;;;;;3.88;1.50;;;23.50;49.50;;;;;;5060839;28;20227;-41
2022/01/13 03:14:27;;;;;;;2.85;1.25;;;23.50;49.40;;;;;;5063349;28;20265;-41
2022/01/13 03:16:57;;;;;;;3.67;2.00;;;23.60;49.40;;;;;;5067020;28;20290;-41
2022/01/13 03:19:28;;;;;;;5.43;1.90;;;23.60;49.30;;;;;;5068149;28;20957;-41
2022/01/13 03:22:00;;;;;;;5.28;1.92;;;23.60;49.20;;;;;;5065458;28;20283;-42
2022/01/13 03:24:31;;;;;;;5.32;1.77;;;23.60;49.00;;;;;;5066065;28;20313;-45
2022/01/13 03:27:03;;;;;;;4.00;1.60;;;23.60;48.90;;;;;;5065408;28;20210;-42
2022/01/13 03:29:34;;;;;;;4.30;1.70;;;23.70;48.90;;;;;;5066275;28;20222;-41
2022/01/13 03:32:04;;;;;;;3.22;1.70;;;23.70;48.80;;;;;;5067025;28;20311;-41
2022/01/13 03:34:35;;;;;;;3.88;1.60;;;23.70;48.70;;;;;;5068018;28;20302;-41
2022/01/13 03:37:07;;;;;;;3.50;1.30;;;23.70;48.80;;;;;;5068528;28;20241;-41
2022/01/13 03:39:38;;;;;;;3.22;1.55;;;23.80;48.80;;;;;;5066762;28;20286;-43
2022/01/13 03:42:08;;;;;;;5.60;1.85;;;23.80;48.80;;;;;;5064987;28;20197;-45
2022/01/13 03:44:42;;;;;;;3.92;1.83;;;23.80;48.80;;;;;;5065783;28;20265;-42
2022/01/13 03:47:15;;;;;;;2.80;1.30;;;23.80;48.70;;;;;;5065058;28;20194;-46
2022/01/13 03:49:45;;;;;;;3.90;1.50;;;23.90;48.70;;;;;;5065831;28;20334;-41
2022/01/13 03:52:44;;;;;;;6.05;1.80;;;23.90;48.50;;;;;;5068076;28;20281;-44
2022/01/13 03:55:50;;;;;;;3.13;1.52;;;23.90;48.40;;;;;;5067409;28;20285;-42
2022/01/13 03:59:01;;;;;;;4.15;1.77;;;24.00;48.50;;;;;;5065538;28;20279;-41
2022/01/13 04:02:03;;;;;;;6.38;1.50;;;24.00;48.40;;;;;;5066161;28;20324;-41
2022/01/13 04:04:35;;;;;;;2.47;1.23;;;24.00;48.30;;;;;;5061672;28;20624;-47
2022/01/13 04:07:11;;;;;;;4.55;1.80;;;24.10;48.30;;;;;;5067161;28;20275;-43
2022/01/13 04:10:28;;;;;;;6.93;1.67;;;24.10;48.20;;;;;;5067675;28;20301;-41
2022/01/13 04:13:00;;;;;;;6.38;1.75;;;24.10;48.20;;;;;;5068810;28;20710;-45
2022/01/13 04:15:35;;;;;;;5.40;1.58;;;24.20;48.10;;;;;;5067689;28;20291;-42
2022/01/13 04:18:06;;;;;;;3.40;1.38;;;24.20;48.10;;;;;;5065431;28;20209;-46
2022/01/13 04:20:36;;;;;;;4.95;1.50;;;24.20;48.20;;;;;;5062714;28;20227;-42
2022/01/13 04:23:07;;;;;;;3.22;1.40;;;24.30;48.10;;;;;;5065829;28;20221;-47
2022/01/13 04:25:37;;;;;;;3.35;1.30;;;24.30;48.00;;;;;;5065836;28;20652;-42
2022/01/13 04:28:08;;;;;;;2.92;1.38;;;24.30;47.90;;;;;;5065882;28;20258;-43
2022/01/13 04:33:26;;;;;;;2.58;1.33;;;24.40;47.90;;;;;;5066449;28;20700;-41
2022/01/13 04:35:56;;;;;;;4.13;1.15;;;24.50;47.80;;;;;;5066058;28;20282;-49
2022/01/13 04:38:27;;;;;;;3.08;1.17;;;24.50;47.70;;;;;;5065676;28;20286;-45
2022/01/13 04:41:00;;;;;;;2.40;1.45;;;24.50;47.60;;;;;;5064267;28;20289;-42
2022/01/13 04:43:33;;;;;;;3.47;1.50;;;24.50;47.60;;;;;;5061851;28;20227;-41
2022/01/13 04:46:05;;;;;;;2.75;1.20;;;24.50;47.50;;;;;;5064279;28;20286;-41
2022/01/13 04:48:35;;;;;;;4.20;1.40;;;24.60;47.40;;;;;;5065776;28;20218;-45
2022/01/13 04:51:06;;;;;;;4.10;1.65;;;24.60;47.20;;;;;;5067267;28;20269;-43
2022/01/13 04:53:36;;;;;;;5.72;1.60;;;24.50;47.10;;;;;;5063196;28;20302;-44
2022/01/13 04:56:11;;;;;;;5.57;1.63;;;24.60;47.00;;;;;;5065385;28;20278;-47
2022/01/13 04:58:42;;;;;;;7.05;1.67;;;24.60;47.00;;;;;;5064905;28;20654;-42
2022/01/13 05:01:15;;;;;;;3.50;1.30;;;24.60;46.90;;;;;;5064481;28;20285;-43
2022/01/13 05:03:46;;;;;;;3.72;1.48;;;24.60;46.80;;;;;;5063822;28;20306;-41
2022/01/13 05:06:17;;;;;;;3.85;1.23;;;24.60;46.80;;;;;;5068072;28;20290;-42
2022/01/13 05:08:48;;;;;;;3.25;1.30;;;24.70;46.80;;;;;;5066287;28;20309;-41
2022/01/13 05:11:19;;;;;;;3.67;1.27;;;24.70;46.60;;;;;;5048947;28;20286;-45
2022/01/13 05:13:50;;;;;;;3.70;1.38;;;24.70;46.70;;;;;;5054916;28;20302;-44
2022/01/13 05:16:26;;;;;;;3.45;1.30;;;24.70;46.60;;;;;;5063030;28;20239;-42
2022/01/13 05:19:10;;;;;;;3.22;1.40;;;24.70;46.50;;;;;;5063042;28;20218;-41
2022/01/13 05:21:55;;;;;;;5.03;1.33;;;24.70;47.00;;;;;;5062674;28;20195;-41
2022/01/13 05:24:26;;;;;;;3.50;1.30;;;24.80;46.40;;;;;;5062566;28;20306;-42
2022/01/13 05:26:56;;;;;;;3.38;1.25;;;24.80;46.50;;;;;;5066419;28;20289;-41
2022/01/13 05:29:27;;;;;;;5.70;1.23;;;24.80;46.60;;;;;;5065163;28;20321;-42
2022/01/13 05:31:59;;;;;;;5.10;1.45;;;24.80;46.50;;;;;;5063210;28;20205;-40
2022/01/13 05:34:30;;;;;;;3.00;1.23;;;24.80;46.40;;;;;;5064208;28;20927;-46
2022/01/13 05:37:00;;;;;;;3.08;1.35;;;24.80;46.40;;;;;;5063273;28;21589;-44
2022/01/13 05:39:30;;;;;;;5.43;1.50;;;24.80;46.40;;;;;;5061677;28;20294;-45
2022/01/13 05:42:01;;;;;;;3.95;1.20;;;24.80;46.30;;;;;;5063218;28;20294;-43
2022/01/13 05:44:37;;;;;;;2.95;1.42;;;24.80;46.30;;;;;;5065746;28;20298;-44
2022/01/13 05:47:12;;;;;;;4.30;1.63;;;24.90;46.30;;;;;;5063968;28;20202;-41
2022/01/13 05:49:44;;;;;;;4.28;1.27;;;24.90;46.30;;;;;;5063456;28;20313;-43
2022/01/13 05:52:15;;;;;;;3.08;1.25;;;24.90;46.30;;;;;;5063701;28;20226;-41
2022/01/13 05:54:46;;;;;;;3.28;1.95;;;24.90;46.20;;;;;;5064421;28;20355;-42
2022/01/13 05:57:16;;;;;;;3.58;2.00;;;24.90;46.10;;;;;;5063302;28;20710;-41
2022/01/13 05:59:47;;;;;;;6.18;2.10;;;24.90;46.10;;;;;;5064687;28;20249;-46
2022/01/13 06:02:19;;;;;;;13.70;9.07;;;24.90;46.10;;;;;;5064745;28;20274;-43
2022/01/13 06:04:49;;;;;;;14.60;9.52;;;24.90;46.10;;;;;;5065100;28;20226;-42
2022/01/13 06:07:20;;;;;;;14.20;9.65;;;24.90;46.00;;;;;;5061606;28;20226;-51
2022/01/13 06:09:50;;;;;;;12.10;7.57;;;24.90;45.80;;;;;;5062565;28;20301;-42
2022/01/13 06:12:31;;;;;;;13.75;8.70;;;24.90;45.90;;;;;;5061476;28;20191;-41
2022/01/13 06:15:03;;;;;;;12.82;8.02;;;24.90;45.90;;;;;;5065932;28;20203;-42
2022/01/13 06:17:36;;;;;;;13.73;7.85;;;24.90;45.80;;;;;;5062241;28;20712;-43
2022/01/13 06:20:08;;;;;;;12.32;7.65;;;24.90;45.80;;;;;;5057782;28;20286;-41
2022/01/13 06:22:38;;;;;;;13.55;8.02;;;24.90;45.80;;;;;;5064213;28;20294;-46
2022/01/13 06:25:11;;;;;;;11.00;7.20;;;24.90;45.80;;;;;;5062497;28;20209;-41
2022/01/13 06:27:42;;;;;;;11.70;7.60;;;25.00;45.80;;;;;;5063210;28;20222;-41
2022/01/13 06:30:16;;;;;;;11.93;7.88;;;25.00;45.90;;;;;;5062666;28;22586;-44
2022/01/13 06:32:48;;;;;;;10.25;7.25;;;24.90;45.90;;;;;;5064690;28;20245;-43
2022/01/13 06:35:19;;;;;;;9.90;6.82;;;25.00;45.90;;;;;;5064406;28;20702;-42
2022/01/13 06:37:49;;;;;;;9.25;6.68;;;25.00;45.80;;;;;;5064835;28;20270;-43
2022/01/13 06:40:20;;;;;;;10.32;7.18;;;25.00;45.80;;;;;;5063774;28;20195;-42
2022/01/13 06:42:50;;;;;;;11.57;6.10;;;25.00;45.90;;;;;;5063484;28;20238;-40
2022/01/13 06:45:21;;;;;;;10.32;6.43;;;25.00;45.60;;;;;;5061108;28;20290;-49
2022/01/13 06:47:53;;;;;;;9.73;5.82;;;25.00;45.80;;;;;;5063916;28;20202;-42
2022/01/13 06:50:24;;;;;;;11.60;5.88;;;25.00;45.50;;;;;;5053116;28;20245;-41
2022/01/13 06:52:54;;;;;;;7.88;5.10;;;25.00;45.50;;;;;;5068723;28;20297;-42
2022/01/13 06:55:25;;;;;;;8.85;5.30;;;25.00;45.50;;;;;;5065239;28;20278;-47
2022/01/13 06:57:55;;;;;;;9.35;5.47;;;25.00;45.50;;;;;;5067617;28;20278;-40
2022/01/13 07:00:26;;;;;;;9.65;5.88;;;25.00;45.50;;;;;;5065067;28;20282;-41
2022/01/13 07:02:59;;;;;;;8.98;5.05;;;25.00;45.60;;;;;;5064306;28;20246;-41
2022/01/13 07:05:29;;;;;;;6.50;4.63;;;25.00;45.50;;;;;;5067742;28;20260;-41
2022/01/13 07:08:00;;;;;;;8.15;5.53;;;25.00;45.40;;;;;;5068884;28;20290;-42
2022/01/13 07:10:31;;;;;;;8.00;4.45;;;25.00;45.40;;;;;;5068821;28;20653;-41
2022/01/13 07:13:01;;;;;;;7.05;4.65;;;25.00;45.50;;;;;;5065305;28;20310;-41
2022/01/13 07:15:33;;;;;;;7.82;4.95;;;25.00;45.50;;;;;;5068456;28;20222;-43
2022/01/13 07:18:05;;;;;;;7.00;4.55;;;25.00;45.50;;;;;;5064563;28;20199;-41
2022/01/13 07:20:36;;;;;;;7.97;4.90;;;24.90;45.50;;;;;;5056235;28;20323;-41
2022/01/13 07:23:06;;;;;;;6.60;4.45;;;24.90;45.50;;;;;;5067595;28;20272;-41
2022/01/13 07:25:37;;;;;;;6.07;4.00;;;24.90;45.50;;;;;;5067196;28;20325;-42
2022/01/13 07:28:07;;;;;;;6.28;3.97;;;24.90;45.60;;;;;;5067830;28;20277;-41
2022/01/13 07:30:38;;;;;;;6.90;4.38;;;24.90;45.50;;;;;;5066233;28;20233;-41
2022/01/13 07:33:10;;;;;;;8.85;4.45;;;24.90;45.60;;;;;;5066267;28;20294;-41
2022/01/13 07:35:41;;;;;;;5.55;3.78;;;24.90;45.60;;;;;;5067216;28;20216;-41
2022/01/13 07:38:11;;;;;;;6.32;3.63;;;24.90;45.60;;;;;;5065978;28;20328;-41
2022/01/13 07:40:42;;;;;;;4.30;3.38;;;24.90;45.60;;;;;;5067164;28;20376;-41
2022/01/13 07:43:12;;;;;;;5.55;3.53;;;24.90;45.60;;;;;;5069074;28;20211;-41
2022/01/13 07:45:43;;;;;;;7.53;3.80;;;24.90;45.60;;;;;;5066960;28;20196;-42
2022/01/13 07:48:15;;;;;;;5.20;3.47;;;24.80;45.80;;;;;;5066965;28;20201;-41
2022/01/13 07:50:46;;;;;;;5.55;3.85;;;24.80;45.80;;;;;;5064644;28;20225;-43
2022/01/13 07:53:16;;;;;;;5.88;3.40;;;24.80;45.80;;;;;;5052661;28;20244;-42
2022/01/13 07:55:47;;;;;;;6.30;4.10;;;24.80;45.90;;;;;;5067071;28;20290;-41
2022/01/13 07:58:17;;;;;;;5.90;3.38;;;24.70;45.90;;;;;;5067418;28;20282;-48
2022/01/13 08:00:48;;;;;;;4.25;2.90;;;24.70;45.90;;;;;;5065434;28;20273;-41
2022/01/13 08:03:20;;;;;;;5.38;3.50;;;24.70;46.00;;;;;;5065805;28;20765;-41
2022/01/13 08:05:51;;;;;;;5.35;3.13;;;24.60;46.00;;;;;;5064697;28;20633;-41
2022/01/13 08:08:21;;;;;;;4.50;3.13;;;24.60;46.10;;;;;;5065828;28;20195;-43
2022/01/13 08:10:52;;;;;;;5.55;2.92;;;24.60;46.10;;;;;;5065262;28;20296;-42
2022/01/13 08:13:22;;;;;;;4.32;3.17;;;24.50;46.20;;;;;;5067635;28;20211;-44
2022/01/13 08:15:54;;;;;;;4.97;3.20;;;24.50;46.20;;;;;;5067785;28;20273;-42
2022/01/13 08:21:13;;;;;;;4.25;2.75;;;24.50;46.30;;;;;;5064144;28;20209;-42
2022/01/13 08:23:44;;;;;;;3.95;2.70;;;24.40;46.30;;;;;;5052621;28;20215;-43
2022/01/13 08:26:15;;;;;;;4.40;2.70;;;24.40;46.30;;;;;;5063656;28;20305;-41
2022/01/13 08:28:45;;;;;;;5.90;3.03;;;24.40;46.40;;;;;;5064307;28;20294;-48
2022/01/13 08:31:16;;;;;;;4.60;3.10;;;24.30;46.50;;;;;;5067013;28;20223;-40
2022/01/13 08:33:48;;;;;;;5.78;2.97;;;24.30;46.50;;;;;;5066735;28;20297;-41
2022/01/13 08:36:19;;;;;;;4.10;2.90;;;24.30;46.50;;;;;;5066465;28;20274;-41
2022/01/13 08:38:49;;;;;;;4.45;2.75;;;24.30;46.50;;;;;;5063224;28;20234;-41
2022/01/13 08:41:20;;;;;;;4.47;2.92;;;24.20;46.50;;;;;;5064587;28;20206;-40
2022/01/13 08:43:52;;;;;;;4.18;2.53;;;24.20;46.50;;;;;;5064461;28;20295;-42
2022/01/13 08:46:23;;;;;;;4.57;2.92;;;24.20;46.60;;;;;;5065202;28;20199;-40
2022/01/13 08:48:55;;;;;;;5.13;2.85;;;24.20;46.60;;;;;;5066921;28;20213;-40
2022/01/13 08:51:26;;;;;;;5.07;2.90;;;24.10;46.60;;;;;;5067298;28;20753;-40
2022/01/13 08:53:56;;;;;;;4.00;2.72;;;24.10;46.70;;;;;;5063793;28;20305;-43
2022/01/13 08:56:27;;;;;;;3.85;3.03;;;24.10;46.70;;;;;;5056394;28;20649;-40
2022/01/13 08:58:57;;;;;;;5.78;2.75;;;24.00;46.70;;;;;;5064718;28;20281;-41
2022/01/13 09:01:30;;;;;;;4.60;2.45;;;24.00;46.80;;;;;;5063951;28;20238;-47
2022/01/13 09:04:02;;;;;;;5.18;2.67;;;24.00;46.90;;;;;;5064689;28;20309;-49
2022/01/13 09:06:33;;;;;;;4.03;2.25;;;24.00;46.80;;;;;;5067723;28;20273;-46
2022/01/13 09:09:03;;;;;;;3.47;2.28;;;24.00;46.90;;;;;;5067500;28;20194;-43
2022/01/13 09:11:33;;;;;;;4.30;2.40;;;23.90;46.80;;;;;;5062056;28;20305;-43
2022/01/13 09:14:04;;;;;;;4.95;2.50;;;23.90;46.80;;;;;;5062839;28;20297;-42
2022/01/13 09:16:41;;;;;;;4.90;2.55;;;23.90;46.90;;;;;;5063906;28;20260;-40
2022/01/13 09:19:17;;;;;;;3.28;2.13;;;23.80;46.90;;;;;;5066490;28;20218;-46
2022/01/13 09:21:49;;;;;;;4.63;2.40;;;23.80;46.90;;;;;;5065747;28;20190;-43
2022/01/13 09:24:21;;;;;;;3.63;2.40;;;23.80;46.90;;;;;;5056566;28;20777;-41
2022/01/13 09:26:52;;;;;;;3.47;2.22;;;23.70;46.90;;;;;;5065688;28;20199;-42
2022/01/13 09:29:22;;;;;;;4.85;2.20;;;23.70;46.90;;;;;;5060113;28;20666;-52
2022/01/13 09:31:52;;;;;;;4.63;2.65;;;23.70;46.90;;;;;;5061863;28;20282;-41
2022/01/13 09:34:25;;;;;;;2.95;1.90;;;23.70;47.00;;;;;;5062067;28;20258;-42
2022/01/13 09:36:55;;;;;;;3.72;2.10;;;23.60;47.10;;;;;;5063989;28;20280;-44
2022/01/13 09:39:27;;;;;;;4.57;2.38;;;23.60;47.10;;;;;;5067038;28;20281;-43
2022/01/13 09:42:00;;;;;;;3.97;2.25;;;23.60;47.10;;;;;;5065344;28;20277;-43
2022/01/13 09:44:32;;;;;;;3.25;1.98;;;23.60;47.20;;;;;;5065026;28;20757;-40
2022/01/13 09:47:04;;;;;;;2.85;1.92;;;23.50;47.20;;;;;;5063156;28;20286;-40
2022/01/13 09:49:37;;;;;;;3.28;2.30;;;23.50;47.30;;;;;;5062123;28;20290;-41
2022/01/13 09:52:08;;;;;;;3.05;2.13;;;23.50;47.30;;;;;;5064586;28;20281;-41
2022/01/13 09:54:38;;;;;;;4.68;2.17;;;23.50;47.30;;;;;;5063257;28;20763;-47
2022/01/13 09:57:09;;;;;;;3.25;2.05;;;23.40;47.30;;;;;;5066735;28;20282;-41
2022/01/13 09:59:40;;;;;;;3.92;2.03;;;23.40;47.30;;;;;;5062902;28;20628;-42
2022/01/13 10:02:10;;;;;;;3.25;2.08;;;23.30;47.30;;;;;;5061435;28;20278;-40
2022/01/13 10:04:50;;;;;;;2.83;1.85;;;23.30;47.30;;;;;;5062366;28;20303;-43
2022/01/13 10:07:33;;;;;;;3.58;1.88;;;23.30;47.30;;;;;;5061239;28;20282;-44
2022/01/13 10:10:06;;;;;;;3.80;2.10;;;23.30;47.40;;;;;;5063699;28;20719;-40
2022/01/13 10:12:38;;;;;;;2.97;1.63;;;23.30;47.40;;;;;;5063808;28;20319;-47
2022/01/13 10:17:57;;;;;;;2.83;1.80;;;23.20;47.40;;;;;;5064931;28;20205;-46
2022/01/13 10:20:30;;;;;;;3.80;1.85;;;23.20;47.50;;;;;;5065601;28;20285;-40
2022/01/13 10:23:09;;;;;;;2.72;2.10;;;23.10;47.50;;;;;;5062415;28;20781;-41
2022/01/13 10:25:43;;;;;;;2.85;1.75;;;23.10;47.50;;;;;;5062856;28;20317;-41
2022/01/13 10:28:19;;;;;;;2.53;1.70;;;23.10;47.60;;;;;;5061844;28;20268;-40
2022/01/13 10:30:51;;;;;;;2.75;1.90;;;23.00;47.50;;;;;;5060532;28;20329;-40
2022/01/13 10:33:24;;;;;;;2.40;1.73;;;23.00;47.60;;;;;;5064540;28;20305;-46
2022/01/13 10:36:07;;;;;;;2.17;1.65;;;23.00;47.60;;;;;;5064326;28;20277;-43
2022/01/13 10:38:55;;;;;;;1.88;1.48;;;23.00;47.60;;;;;;5066569;28;20293;-40
2022/01/13 10:41:37;;;;;;;2.63;1.80;;;23.00;47.60;;;;;;5062196;28;20726;-41
2022/01/13 10:44:18;;;;;;;2.58;1.95;;;23.00;47.70;;;;;;5064074;28;20737;-44
2022/01/13 10:47:03;;;;;;;3.30;1.95;;;22.90;47.60;;;;;;5064240;28;20232;-45
2022/01/13 10:49:38;;;;;;;3.55;1.83;;;22.90;47.70;;;;;;5060992;28;20290;-42
2022/01/13 10:52:26;;;;;;;2.83;1.60;;;22.90;47.70;;;;;;5062163;28;20230;-41
2022/01/13 10:55:01;;;;;;;2.03;1.70;;;22.80;47.70;;;;;;5064349;28;20213;-41
2022/01/13 10:57:32;;;;;;;2.83;1.80;;;22.80;47.70;;;;;;5061978;28;20364;-40
2022/01/13 11:00:03;;;;;;;2.38;1.50;;;22.80;47.80;;;;;;5061460;28;20289;-42
2022/01/13 11:02:34;;;;;;;2.72;1.80;;;22.80;47.80;;;;;;5065193;28;20274;-41
2022/01/13 11:05:06;;;;;;;2.78;1.80;;;22.70;47.80;;;;;;5064329;28;20750;-43
2022/01/13 11:07:40;;;;;;;2.88;1.40;;;22.70;47.90;;;;;;5074143;22;20302;-40
2022/01/13 11:10:12;;;;;;;2.67;1.55;;;22.70;47.90;;;;;;5054794;28;20202;-39
2022/01/13 11:12:44;;;;;;;3.30;1.60;;;22.70;47.90;;;;;;5040107;28;20323;-40
2022/01/13 11:15:18;;;;;;;2.17;1.60;;;22.70;47.90;;;;;;5037870;28;20192;-39
2022/01/13 11:17:49;;;;;;;2.90;1.60;;;22.70;47.90;;;;;;5045598;28;20196;-39
2022/01/13 11:20:21;;;;;;;2.40;1.58;;;22.70;47.90;;;;;;5048017;28;20218;-40
2022/01/13 11:22:55;;;;;;;2.28;1.35;;;22.60;47.90;;;;;;5046893;28;20726;-40
2022/01/13 11:25:27;;;;;;;3.85;1.50;;;22.60;48.00;;;;;;5045652;28;20283;-40
2022/01/13 11:27:59;;;;;;;2.33;1.60;;;22.60;48.00;;;;;;5046086;28;20231;-42
2022/01/13 11:30:31;;;;;;;2.97;1.70;;;22.60;48.00;;;;;;5042308;28;20216;-40
2022/01/13 11:33:01;;;;;;;2.50;1.70;;;22.60;48.10;;;;;;5036514;28;20208;-40
2022/01/13 11:35:34;;;;;;;2.00;1.48;;;22.50;48.10;;;;;;5039201;28;20237;-40
2022/01/13 11:38:08;;;;;;;1.98;1.23;;;22.50;48.10;;;;;;5042490;28;20587;-43
2022/01/13 11:40:41;;;;;;;1.90;1.45;;;22.50;48.70;;;;;;5042032;28;20715;-40
2022/01/13 11:43:26;;;;;;;1.73;1.30;;;22.40;48.10;;;;;;5043054;28;20934;-41
2022/01/13 11:45:57;;;;;;;2.65;1.60;;;22.40;48.10;;;;;;5040748;28;20845;-42
2022/01/13 11:48:29;;;;;;;1.92;1.30;;;22.40;48.10;;;;;;5041114;28;20283;-42
2022/01/13 11:51:20;;;;;;;1.33;1.20;;;22.40;48.10;;;;;;5039975;28;20231;-44
2022/01/13 11:54:04;;;;;;;2.45;1.20;;;22.40;48.20;;;;;;5043562;28;20262;-45
2022/01/13 11:56:35;;;;;;;2.00;1.27;;;22.40;48.20;;;;;;5039681;28;20215;-42
2022/01/13 11:59:11;;;;;;;1.77;1.23;;;22.40;48.20;;;;;;5040042;28;20711;-43
2022/01/13 12:01:41;;;;;;;2.08;1.10;;;22.30;48.20;;;;;;5039541;28;20211;-41
2022/01/13 12:04:12;;;;;;;2.30;1.40;;;22.30;48.20;;;;;;5043291;28;20303;-40
2022/01/13 12:06:45;;;;;;;2.22;1.17;;;22.30;48.20;;;;;;5040828;28;20199;-40
2022/01/13 12:09:40;;;;;;;1.33;1.10;;;22.30;48.20;;;;;;5038707;28;20485;-43
2022/01/13 12:12:30;;;;;;;2.00;1.30;;;22.30;48.20;;;;;;5037259;28;20219;-45
2022/01/13 12:15:17;;;;;;;4.80;1.40;;;22.30;48.20;;;;;;5041785;28;20727;-49
2022/01/13 12:17:50;;;;;;;1.95;1.33;;;22.30;48.30;;;;;;5046963;28;20286;-45
2022/01/13 12:20:39;;;;;;;1.48;1.27;;;22.30;48.30;;;;;;5048383;28;20668;-49
2022/01/13 12:23:29;;;;;;;1.77;1.40;;;22.20;48.30;;;;;;5046137;28;20224;-42
2022/01/13 12:26:02;;;;;;;2.15;1.23;;;22.20;48.30;;;;;;5035537;28;20213;-50
2022/01/13 12:28:32;;;;;;;3.30;1.35;;;22.20;48.30;;;;;;5050674;28;20287;-45
2022/01/13 12:31:29;;;;;;;1.50;1.20;;;22.20;48.40;;;;;;5049110;28;20318;-44
2022/01/13 12:33:59;;;;;;;2.10;1.42;;;22.10;48.40;;;;;;5049423;28;20310;-42
2022/01/13 12:36:30;;;;;;;1.67;1.20;;;22.10;48.40;;;;;;5047713;28;20325;-41
2022/01/13 12:39:02;;;;;;;1.65;1.20;;;22.10;48.40;;;;;;5047675;28;20544;-41
2022/01/13 12:41:34;;;;;;;1.48;1.20;;;22.10;48.40;;;;;;5040607;28;20292;-44
2022/01/13 12:45:27;;;;;;;1.52;1.08;;;22.10;48.40;;;;;;5034981;28;20251;-47
2022/01/13 12:47:05;;;;;;;1.42;1.00;;;22.10;48.40;;;;;;5036618;28;20196;-41
2022/01/13 12:49:36;;;;;;;2.20;1.20;;;22.10;48.40;;;;;;5049284;28;20295;-40
2022/01/13 12:52:06;;;;;;;2.47;1.10;;;22.10;48.40;;;;;;5033256;28;20315;-45
2022/01/13 12:54:38;;;;;;;1.88;1.13;;;22.00;48.40;;;;;;5043728;28;20248;-46
2022/01/13 12:57:10;;;;;;;1.55;1.05;;;22.00;48.40;;;;;;5034690;28;20844;-45
2022/01/13 12:59:41;;;;;;;1.85;1.25;;;22.00;48.40;;;;;;5037241;28;20200;-44
2022/01/13 13:02:12;;;;;;;2.28;1.10;;;22.00;48.50;;;;;;5039812;28;20664;-42
2022/01/13 13:04:42;;;;;;;1.27;0.85;;;22.00;48.50;;;;;;5038067;28;20235;-45
2022/01/13 13:07:13;;;;;;;1.35;1.10;;;22.00;48.60;;;;;;5049036;28;20291;-43
2022/01/13 13:09:43;;;;;;;2.50;1.25;;;21.90;48.60;;;;;;5032715;28;20630;-41
2022/01/13 13:12:25;;;;;;;1.50;1.10;;;21.90;48.60;;;;;;5047458;28;20318;-48
2022/01/13 13:17:45;;;;;;;1.77;1.00;;;21.90;48.60;;;;;;5035750;28;20215;-41
2022/01/13 13:20:27;;;;;;;2.20;1.20;;;21.90;48.60;;;;;;5035330;28;20294;-44
2022/01/13 13:22:59;;;;;;;2.85;1.02;;;21.80;48.50;;;;;;5037238;28;20306;-44
2022/01/13 13:25:33;;;;;;;1.33;0.95;;;21.80;48.50;;;;;;5046795;28;20692;-40
2022/01/13 13:28:27;;;;;;;1.25;1.00;;;21.80;49.20;;;;;;5047411;28;20290;-41
2022/01/13 13:30:59;;;;;;;1.50;1.17;;;21.80;48.60;;;;;;5033154;28;20306;-42
2022/01/13 13:33:40;;;;;;;1.30;0.90;;;21.80;48.60;;;;;;5048115;28;20294;-40
2022/01/13 13:36:12;;;;;;;1.30;0.98;;;21.80;48.60;;;;;;5047558;28;20278;-40